sensor_id;sensor_type;location;lat;lon;timestamp;P1;durP1;ratioP1;P2;durP2;ratioP2
54157;SDS011;40065;49.894;10.358;2024-03-25T00:01:35;7.72;;;3.38;;
54157;SDS011;40065;49.894;10.358;2024-03-25T00:06:36;7.35;;;3.70;;
54157;SDS011;40065;49.894;10.358;2024-03-25T00:11:37;5.75;;;3.40;;
54157;SDS011;40065;49.894;10.358;2024-03-25T00:16:38;10.85;;;3.70;;
54157;SDS011;40065;49.894;10.358;2024-03-25T00:21:39;10.38;;;4.32;;
54157;SDS011;40065;49.894;10.358;2024-03-25T00:26:39;15.38;;;3.92;;
54157;SDS011;40065;49.894;10.358;2024-03-25T00:31:40;6.72;;;3.17;;
54157;SDS011;40065;49.894;10.358;2024-03-25T00:36:41;10.95;;;3.67;;
54157;SDS011;40065;49.894;10.358;2024-03-25T00:41:43;6.95;;;3.20;;
54157;SDS011;40065;49.894;10.358;2024-03-25T00:46:43;5.78;;;3.60;;
54157;SDS011;40065;49.894;10.358;2024-03-25T00:51:44;8.02;;;4.88;;
54157;SDS011;40065;49.894;10.358;2024-03-25T00:56:45;11.50;;;4.93;;
54157;SDS011;40065;49.894;10.358;2024-03-25T01:01:46;10.93;;;5.00;;
54157;SDS011;40065;49.894;10.358;2024-03-25T01:06:47;8.77;;;5.43;;
54157;SDS011;40065;49.894;10.358;2024-03-25T01:11:49;8.40;;;4.20;;
54157;SDS011;40065;49.894;10.358;2024-03-25T01:16:49;8.40;;;4.70;;
54157;SDS011;40065;49.894;10.358;2024-03-25T01:21:50;9.90;;;4.97;;
54157;SDS011;40065;49.894;10.358;2024-03-25T01:26:51;9.93;;;4.60;;
54157;SDS011;40065;49.894;10.358;2024-03-25T01:31:52;14.10;;;4.75;;
54157;SDS011;40065;49.894;10.358;2024-03-25T01:36:53;7.80;;;4.22;;
54157;SDS011;40065;49.894;10.358;2024-03-25T01:41:54;8.85;;;4.32;;
54157;SDS011;40065;49.894;10.358;2024-03-25T01:46:55;8.63;;;4.60;;
54157;SDS011;40065;49.894;10.358;2024-03-25T01:51:56;7.05;;;4.43;;
54157;SDS011;40065;49.894;10.358;2024-03-25T01:56:58;8.52;;;4.20;;
54157;SDS011;40065;49.894;10.358;2024-03-25T02:01:59;9.25;;;4.90;;
54157;SDS011;40065;49.894;10.358;2024-03-25T02:07:00;13.68;;;5.10;;
54157;SDS011;40065;49.894;10.358;2024-03-25T02:12:03;8.98;;;5.03;;
54157;SDS011;40065;49.894;10.358;2024-03-25T02:17:04;9.43;;;4.80;;
54157;SDS011;40065;49.894;10.358;2024-03-25T02:22:06;11.43;;;4.85;;
54157;SDS011;40065;49.894;10.358;2024-03-25T02:27:07;10.27;;;4.32;;
54157;SDS011;40065;49.894;10.358;2024-03-25T02:32:10;6.43;;;3.90;;
54157;SDS011;40065;49.894;10.358;2024-03-25T02:37:13;6.75;;;3.97;;
54157;SDS011;40065;49.894;10.358;2024-03-25T02:42:14;6.78;;;3.50;;
54157;SDS011;40065;49.894;10.358;2024-03-25T02:47:15;7.68;;;2.92;;
54157;SDS011;40065;49.894;10.358;2024-03-25T02:52:18;6.75;;;2.50;;
54157;SDS011;40065;49.894;10.358;2024-03-25T02:57:20;8.60;;;2.47;;
54157;SDS011;40065;49.894;10.358;2024-03-25T03:02:21;4.20;;;1.60;;
54157;SDS011;40065;49.894;10.358;2024-03-25T03:07:22;4.15;;;1.60;;
54157;SDS011;40065;49.894;10.358;2024-03-25T03:12:23;4.97;;;1.67;;
54157;SDS011;40065;49.894;10.358;2024-03-25T03:17:24;7.25;;;1.50;;
54157;SDS011;40065;49.894;10.358;2024-03-25T03:22:25;4.18;;;1.85;;
54157;SDS011;40065;49.894;10.358;2024-03-25T03:27:25;3.08;;;1.42;;
54157;SDS011;40065;49.894;10.358;2024-03-25T03:32:26;4.95;;;1.48;;
54157;SDS011;40065;49.894;10.358;2024-03-25T03:37:27;4.38;;;1.50;;
54157;SDS011;40065;49.894;10.358;2024-03-25T03:42:28;6.13;;;1.77;;
54157;SDS011;40065;49.894;10.358;2024-03-25T03:47:29;5.32;;;1.90;;
54157;SDS011;40065;49.894;10.358;2024-03-25T03:52:29;5.95;;;2.60;;
54157;SDS011;40065;49.894;10.358;2024-03-25T03:57:31;6.40;;;2.67;;
54157;SDS011;40065;49.894;10.358;2024-03-25T04:02:32;8.98;;;3.40;;
54157;SDS011;40065;49.894;10.358;2024-03-25T04:07:33;8.10;;;3.90;;
54157;SDS011;40065;49.894;10.358;2024-03-25T04:12:34;8.05;;;3.63;;
54157;SDS011;40065;49.894;10.358;2024-03-25T04:17:37;8.95;;;4.03;;
54157;SDS011;40065;49.894;10.358;2024-03-25T04:22:47;10.18;;;4.40;;
54157;SDS011;40065;49.894;10.358;2024-03-25T04:27:48;10.77;;;4.72;;
54157;SDS011;40065;49.894;10.358;2024-03-25T04:32:49;9.55;;;4.70;;
54157;SDS011;40065;49.894;10.358;2024-03-25T04:37:50;7.72;;;4.40;;
54157;SDS011;40065;49.894;10.358;2024-03-25T04:42:50;9.65;;;4.10;;
54157;SDS011;40065;49.894;10.358;2024-03-25T04:47:51;7.20;;;3.42;;
54157;SDS011;40065;49.894;10.358;2024-03-25T04:52:52;9.50;;;3.50;;
54157;SDS011;40065;49.894;10.358;2024-03-25T04:57:53;7.18;;;3.70;;
54157;SDS011;40065;49.894;10.358;2024-03-25T05:02:54;7.97;;;3.70;;
54157;SDS011;40065;49.894;10.358;2024-03-25T05:07:56;8.02;;;3.60;;
54157;SDS011;40065;49.894;10.358;2024-03-25T05:12:56;6.68;;;2.88;;
54157;SDS011;40065;49.894;10.358;2024-03-25T05:17:57;8.38;;;3.30;;
54157;SDS011;40065;49.894;10.358;2024-03-25T05:22:58;8.98;;;2.95;;
54157;SDS011;40065;49.894;10.358;2024-03-25T05:27:59;7.38;;;2.67;;
54157;SDS011;40065;49.894;10.358;2024-03-25T05:33:01;10.02;;;3.05;;
54157;SDS011;40065;49.894;10.358;2024-03-25T05:38:02;8.02;;;2.40;;
54157;SDS011;40065;49.894;10.358;2024-03-25T05:43:06;10.68;;;2.03;;
54157;SDS011;40065;49.894;10.358;2024-03-25T05:48:07;6.57;;;2.10;;
54157;SDS011;40065;49.894;10.358;2024-03-25T05:53:08;6.78;;;2.05;;
54157;SDS011;40065;49.894;10.358;2024-03-25T05:58:09;5.70;;;2.20;;
54157;SDS011;40065;49.894;10.358;2024-03-25T06:03:10;7.95;;;3.78;;
54157;SDS011;40065;49.894;10.358;2024-03-25T06:08:11;8.15;;;2.67;;
54157;SDS011;40065;49.894;10.358;2024-03-25T06:13:24;10.13;;;4.07;;
54157;SDS011;40065;49.894;10.358;2024-03-25T06:18:25;10.43;;;3.33;;
54157;SDS011;40065;49.894;10.358;2024-03-25T06:23:27;7.10;;;3.00;;
54157;SDS011;40065;49.894;10.358;2024-03-25T06:28:28;7.85;;;3.40;;
54157;SDS011;40065;49.894;10.358;2024-03-25T06:33:29;8.73;;;3.83;;
54157;SDS011;40065;49.894;10.358;2024-03-25T06:38:50;10.00;;;4.45;;
54157;SDS011;40065;49.894;10.358;2024-03-25T06:43:51;13.20;;;5.65;;
54157;SDS011;40065;49.894;10.358;2024-03-25T06:48:52;9.82;;;4.40;;
54157;SDS011;40065;49.894;10.358;2024-03-25T06:53:53;10.18;;;4.22;;
54157;SDS011;40065;49.894;10.358;2024-03-25T06:58:54;9.63;;;3.95;;
54157;SDS011;40065;49.894;10.358;2024-03-25T07:03:55;6.82;;;3.42;;
54157;SDS011;40065;49.894;10.358;2024-03-25T07:08:56;8.23;;;3.80;;
54157;SDS011;40065;49.894;10.358;2024-03-25T07:13:57;10.00;;;3.85;;
54157;SDS011;40065;49.894;10.358;2024-03-25T07:18:58;10.18;;;4.18;;
54157;SDS011;40065;49.894;10.358;2024-03-25T07:23:59;14.48;;;4.07;;
54157;SDS011;40065;49.894;10.358;2024-03-25T07:28:59;9.52;;;3.30;;
54157;SDS011;40065;49.894;10.358;2024-03-25T07:34:00;8.90;;;3.55;;
54157;SDS011;40065;49.894;10.358;2024-03-25T07:39:01;9.10;;;3.70;;
54157;SDS011;40065;49.894;10.358;2024-03-25T07:44:02;9.32;;;3.67;;
54157;SDS011;40065;49.894;10.358;2024-03-25T07:49:03;6.65;;;3.35;;
54157;SDS011;40065;49.894;10.358;2024-03-25T07:54:04;7.53;;;3.20;;
54157;SDS011;40065;49.894;10.358;2024-03-25T07:59:05;9.98;;;3.28;;
54157;SDS011;40065;49.894;10.358;2024-03-25T08:04:05;7.30;;;3.72;;
54157;SDS011;40065;49.894;10.358;2024-03-25T08:09:07;9.27;;;4.07;;
54157;SDS011;40065;49.894;10.358;2024-03-25T08:14:10;9.23;;;3.50;;
54157;SDS011;40065;49.894;10.358;2024-03-25T08:19:11;6.32;;;3.60;;
54157;SDS011;40065;49.894;10.358;2024-03-25T08:24:13;6.25;;;3.00;;
54157;SDS011;40065;49.894;10.358;2024-03-25T08:29:14;7.82;;;3.88;;
54157;SDS011;40065;49.894;10.358;2024-03-25T08:34:15;9.82;;;3.60;;
54157;SDS011;40065;49.894;10.358;2024-03-25T08:39:16;5.45;;;2.83;;
54157;SDS011;40065;49.894;10.358;2024-03-25T08:44:17;7.80;;;3.08;;
54157;SDS011;40065;49.894;10.358;2024-03-25T08:49:18;5.22;;;2.20;;
54157;SDS011;40065;49.894;10.358;2024-03-25T08:54:19;5.03;;;2.10;;
54157;SDS011;40065;49.894;10.358;2024-03-25T08:59:19;6.63;;;2.50;;
54157;SDS011;40065;49.894;10.358;2024-03-25T09:04:20;6.45;;;2.10;;
54157;SDS011;40065;49.894;10.358;2024-03-25T09:09:21;9.40;;;2.35;;
54157;SDS011;40065;49.894;10.358;2024-03-25T09:14:41;6.63;;;1.88;;
54157;SDS011;40065;49.894;10.358;2024-03-25T09:19:42;6.43;;;2.10;;
54157;SDS011;40065;49.894;10.358;2024-03-25T09:24:42;9.15;;;2.03;;
54157;SDS011;40065;49.894;10.358;2024-03-25T09:29:43;6.60;;;1.90;;
54157;SDS011;40065;49.894;10.358;2024-03-25T09:34:44;5.90;;;2.13;;
54157;SDS011;40065;49.894;10.358;2024-03-25T09:39:47;6.07;;;1.92;;
54157;SDS011;40065;49.894;10.358;2024-03-25T09:44:48;5.57;;;1.70;;
54157;SDS011;40065;49.894;10.358;2024-03-25T09:49:53;5.50;;;1.70;;
54157;SDS011;40065;49.894;10.358;2024-03-25T09:54:55;6.55;;;1.75;;
54157;SDS011;40065;49.894;10.358;2024-03-25T09:59:56;3.30;;;1.13;;
54157;SDS011;40065;49.894;10.358;2024-03-25T10:04:57;8.45;;;1.52;;
54157;SDS011;40065;49.894;10.358;2024-03-25T10:09:58;5.03;;;1.10;;
54157;SDS011;40065;49.894;10.358;2024-03-25T10:14:59;9.00;;;2.30;;
54157;SDS011;40065;49.894;10.358;2024-03-25T10:20:00;4.32;;;1.20;;
54157;SDS011;40065;49.894;10.358;2024-03-25T10:25:01;6.68;;;1.58;;
54157;SDS011;40065;49.894;10.358;2024-03-25T10:30:02;8.32;;;1.80;;
54157;SDS011;40065;49.894;10.358;2024-03-25T10:35:03;6.80;;;1.80;;
54157;SDS011;40065;49.894;10.358;2024-03-25T10:40:06;4.70;;;1.20;;
54157;SDS011;40065;49.894;10.358;2024-03-25T10:45:12;4.40;;;1.10;;
54157;SDS011;40065;49.894;10.358;2024-03-25T10:50:13;4.68;;;1.13;;
54157;SDS011;40065;49.894;10.358;2024-03-25T10:55:20;5.93;;;1.45;;
54157;SDS011;40065;49.894;10.358;2024-03-25T11:00:22;3.67;;;1.23;;
54157;SDS011;40065;49.894;10.358;2024-03-25T11:05:23;5.32;;;1.20;;
54157;SDS011;40065;49.894;10.358;2024-03-25T11:10:31;3.83;;;1.27;;
54157;SDS011;40065;49.894;10.358;2024-03-25T11:15:41;5.47;;;1.25;;
54157;SDS011;40065;49.894;10.358;2024-03-25T11:20:45;7.15;;;1.08;;
54157;SDS011;40065;49.894;10.358;2024-03-25T11:25:54;4.03;;;1.20;;
54157;SDS011;40065;49.894;10.358;2024-03-25T11:30:57;3.97;;;1.08;;
54157;SDS011;40065;49.894;10.358;2024-03-25T11:35:58;7.93;;;1.20;;
54157;SDS011;40065;49.894;10.358;2024-03-25T11:41:00;5.43;;;1.33;;
54157;SDS011;40065;49.894;10.358;2024-03-25T11:46:01;4.90;;;1.23;;
54157;SDS011;40065;49.894;10.358;2024-03-25T11:51:03;3.20;;;1.13;;
54157;SDS011;40065;49.894;10.358;2024-03-25T11:56:04;2.20;;;0.80;;
54157;SDS011;40065;49.894;10.358;2024-03-25T12:01:06;4.55;;;1.13;;
54157;SDS011;40065;49.894;10.358;2024-03-25T12:06:09;5.90;;;1.23;;
54157;SDS011;40065;49.894;10.358;2024-03-25T12:11:10;3.05;;;0.80;;
54157;SDS011;40065;49.894;10.358;2024-03-25T12:16:20;4.38;;;1.45;;
54157;SDS011;40065;49.894;10.358;2024-03-25T12:21:21;4.22;;;1.10;;
54157;SDS011;40065;49.894;10.358;2024-03-25T12:26:21;2.40;;;0.90;;
54157;SDS011;40065;49.894;10.358;2024-03-25T12:31:23;2.92;;;1.40;;
54157;SDS011;40065;49.894;10.358;2024-03-25T12:36:24;4.72;;;1.40;;
54157;SDS011;40065;49.894;10.358;2024-03-25T12:41:27;4.03;;;1.40;;
54157;SDS011;40065;49.894;10.358;2024-03-25T12:46:27;3.33;;;1.05;;
54157;SDS011;40065;49.894;10.358;2024-03-25T12:51:29;5.75;;;1.17;;
54157;SDS011;40065;49.894;10.358;2024-03-25T12:56:30;6.40;;;1.33;;
54157;SDS011;40065;49.894;10.358;2024-03-25T13:01:31;8.15;;;1.50;;
54157;SDS011;40065;49.894;10.358;2024-03-25T13:06:32;3.13;;;1.00;;
54157;SDS011;40065;49.894;10.358;2024-03-25T13:11:33;4.15;;;1.35;;
54157;SDS011;40065;49.894;10.358;2024-03-25T13:16:34;6.78;;;1.60;;
54157;SDS011;40065;49.894;10.358;2024-03-25T13:21:35;2.63;;;1.17;;
54157;SDS011;40065;49.894;10.358;2024-03-25T13:26:36;7.05;;;1.50;;
54157;SDS011;40065;49.894;10.358;2024-03-25T13:31:37;4.95;;;1.25;;
54157;SDS011;40065;49.894;10.358;2024-03-25T13:36:38;5.80;;;1.50;;
54157;SDS011;40065;49.894;10.358;2024-03-25T13:41:38;4.95;;;1.55;;
54157;SDS011;40065;49.894;10.358;2024-03-25T13:46:39;5.15;;;1.50;;
54157;SDS011;40065;49.894;10.358;2024-03-25T13:51:40;7.10;;;1.30;;
54157;SDS011;40065;49.894;10.358;2024-03-25T13:56:41;4.35;;;1.85;;
54157;SDS011;40065;49.894;10.358;2024-03-25T14:01:42;6.50;;;1.70;;
54157;SDS011;40065;49.894;10.358;2024-03-25T14:06:43;3.75;;;1.20;;
54157;SDS011;40065;49.894;10.358;2024-03-25T14:11:46;3.50;;;1.38;;
54157;SDS011;40065;49.894;10.358;2024-03-25T14:16:46;5.68;;;2.00;;
54157;SDS011;40065;49.894;10.358;2024-03-25T14:21:48;5.13;;;1.90;;
54157;SDS011;40065;49.894;10.358;2024-03-25T14:26:49;3.17;;;1.23;;
54157;SDS011;40065;49.894;10.358;2024-03-25T14:31:49;6.00;;;1.50;;
54157;SDS011;40065;49.894;10.358;2024-03-25T14:36:50;4.22;;;1.23;;
54157;SDS011;40065;49.894;10.358;2024-03-25T14:41:51;6.35;;;1.50;;
54157;SDS011;40065;49.894;10.358;2024-03-25T14:46:52;3.97;;;1.23;;
54157;SDS011;40065;49.894;10.358;2024-03-25T14:51:53;4.20;;;2.05;;
54157;SDS011;40065;49.894;10.358;2024-03-25T14:56:54;3.08;;;1.30;;
54157;SDS011;40065;49.894;10.358;2024-03-25T15:01:54;4.28;;;1.58;;
54157;SDS011;40065;49.894;10.358;2024-03-25T15:06:59;4.40;;;1.50;;
54157;SDS011;40065;49.894;10.358;2024-03-25T15:12:00;2.58;;;1.50;;
54157;SDS011;40065;49.894;10.358;2024-03-25T15:17:01;4.28;;;1.40;;
54157;SDS011;40065;49.894;10.358;2024-03-25T15:22:02;4.40;;;1.85;;
54157;SDS011;40065;49.894;10.358;2024-03-25T15:27:04;3.22;;;1.67;;
54157;SDS011;40065;49.894;10.358;2024-03-25T15:32:05;3.25;;;1.63;;
54157;SDS011;40065;49.894;10.358;2024-03-25T15:37:06;4.15;;;1.70;;
54157;SDS011;40065;49.894;10.358;2024-03-25T15:42:07;4.22;;;1.30;;
54157;SDS011;40065;49.894;10.358;2024-03-25T15:47:08;5.00;;;1.48;;
54157;SDS011;40065;49.894;10.358;2024-03-25T15:52:09;5.80;;;1.60;;
54157;SDS011;40065;49.894;10.358;2024-03-25T15:57:12;4.63;;;1.60;;
54157;SDS011;40065;49.894;10.358;2024-03-25T16:02:13;3.55;;;1.38;;
54157;SDS011;40065;49.894;10.358;2024-03-25T16:07:14;6.03;;;1.52;;
54157;SDS011;40065;49.894;10.358;2024-03-25T16:12:15;4.18;;;1.58;;
54157;SDS011;40065;49.894;10.358;2024-03-25T16:17:15;4.43;;;1.50;;
54157;SDS011;40065;49.894;10.358;2024-03-25T16:22:16;5.45;;;1.70;;
54157;SDS011;40065;49.894;10.358;2024-03-25T16:27:18;5.90;;;1.80;;
54157;SDS011;40065;49.894;10.358;2024-03-25T16:32:19;6.45;;;1.70;;
54157;SDS011;40065;49.894;10.358;2024-03-25T16:37:19;3.28;;;1.10;;
54157;SDS011;40065;49.894;10.358;2024-03-25T16:42:20;4.05;;;1.30;;
54157;SDS011;40065;49.894;10.358;2024-03-25T16:47:21;8.25;;;5.20;;
54157;SDS011;40065;49.894;10.358;2024-03-25T16:52:22;3.90;;;1.50;;
54157;SDS011;40065;49.894;10.358;2024-03-25T16:57:23;4.43;;;1.38;;
54157;SDS011;40065;49.894;10.358;2024-03-25T17:02:24;3.17;;;1.27;;
54157;SDS011;40065;49.894;10.358;2024-03-25T17:07:26;3.15;;;1.45;;
54157;SDS011;40065;49.894;10.358;2024-03-25T17:12:27;5.20;;;1.60;;
54157;SDS011;40065;49.894;10.358;2024-03-25T17:17:28;3.65;;;1.70;;
54157;SDS011;40065;49.894;10.358;2024-03-25T17:22:29;3.22;;;1.63;;
54157;SDS011;40065;49.894;10.358;2024-03-25T17:27:29;3.05;;;1.60;;
54157;SDS011;40065;49.894;10.358;2024-03-25T17:32:30;3.10;;;1.48;;
54157;SDS011;40065;49.894;10.358;2024-03-25T17:37:31;4.93;;;1.67;;
54157;SDS011;40065;49.894;10.358;2024-03-25T17:42:32;4.10;;;1.58;;
54157;SDS011;40065;49.894;10.358;2024-03-25T17:47:33;3.00;;;1.70;;
54157;SDS011;40065;49.894;10.358;2024-03-25T17:52:35;4.78;;;1.60;;
54157;SDS011;40065;49.894;10.358;2024-03-25T17:57:36;4.40;;;1.65;;
54157;SDS011;40065;49.894;10.358;2024-03-25T18:02:37;2.42;;;1.30;;
54157;SDS011;40065;49.894;10.358;2024-03-25T18:07:38;7.38;;;1.70;;
54157;SDS011;40065;49.894;10.358;2024-03-25T18:12:43;3.70;;;1.48;;
54157;SDS011;40065;49.894;10.358;2024-03-25T18:17:44;3.22;;;1.45;;
54157;SDS011;40065;49.894;10.358;2024-03-25T18:22:45;2.50;;;1.40;;
54157;SDS011;40065;49.894;10.358;2024-03-25T18:27:45;5.07;;;1.65;;
54157;SDS011;40065;49.894;10.358;2024-03-25T18:32:46;2.35;;;1.23;;
54157;SDS011;40065;49.894;10.358;2024-03-25T18:37:48;3.38;;;1.80;;
54157;SDS011;40065;49.894;10.358;2024-03-25T18:42:48;4.30;;;1.55;;
54157;SDS011;40065;49.894;10.358;2024-03-25T18:47:49;3.97;;;1.67;;
54157;SDS011;40065;49.894;10.358;2024-03-25T18:52:50;6.53;;;1.90;;
54157;SDS011;40065;49.894;10.358;2024-03-25T18:57:51;3.85;;;1.90;;
54157;SDS011;40065;49.894;10.358;2024-03-25T19:02:52;5.63;;;1.70;;
54157;SDS011;40065;49.894;10.358;2024-03-25T19:07:52;5.80;;;1.65;;
54157;SDS011;40065;49.894;10.358;2024-03-25T19:12:53;4.40;;;2.00;;
54157;SDS011;40065;49.894;10.358;2024-03-25T19:17:54;5.28;;;1.90;;
54157;SDS011;40065;49.894;10.358;2024-03-25T19:22:55;4.93;;;2.85;;
54157;SDS011;40065;49.894;10.358;2024-03-25T19:27:56;2.63;;;1.52;;
54157;SDS011;40065;49.894;10.358;2024-03-25T19:32:57;4.63;;;2.47;;
54157;SDS011;40065;49.894;10.358;2024-03-25T19:37:58;4.13;;;1.63;;
54157;SDS011;40065;49.894;10.358;2024-03-25T19:42:58;5.60;;;2.20;;
54157;SDS011;40065;49.894;10.358;2024-03-25T19:47:59;6.72;;;2.35;;
54157;SDS011;40065;49.894;10.358;2024-03-25T19:53:00;4.82;;;1.88;;
54157;SDS011;40065;49.894;10.358;2024-03-25T19:58:01;4.68;;;1.90;;
54157;SDS011;40065;49.894;10.358;2024-03-25T20:03:03;3.63;;;1.90;;
54157;SDS011;40065;49.894;10.358;2024-03-25T20:08:04;6.00;;;2.15;;
54157;SDS011;40065;49.894;10.358;2024-03-25T20:13:05;4.60;;;1.75;;
54157;SDS011;40065;49.894;10.358;2024-03-25T20:18:09;3.97;;;2.10;;
54157;SDS011;40065;49.894;10.358;2024-03-25T20:23:11;7.03;;;3.97;;
54157;SDS011;40065;49.894;10.358;2024-03-25T20:28:12;4.60;;;2.33;;
54157;SDS011;40065;49.894;10.358;2024-03-25T20:33:13;5.20;;;2.40;;
54157;SDS011;40065;49.894;10.358;2024-03-25T20:38:14;5.60;;;3.00;;
54157;SDS011;40065;49.894;10.358;2024-03-25T20:43:15;11.52;;;4.13;;
54157;SDS011;40065;49.894;10.358;2024-03-25T20:48:16;4.82;;;2.15;;
54157;SDS011;40065;49.894;10.358;2024-03-25T20:53:17;6.80;;;2.50;;
54157;SDS011;40065;49.894;10.358;2024-03-25T20:58:18;6.90;;;2.25;;
54157;SDS011;40065;49.894;10.358;2024-03-25T21:03:19;4.78;;;1.70;;
54157;SDS011;40065;49.894;10.358;2024-03-25T21:08:21;5.65;;;2.03;;
54157;SDS011;40065;49.894;10.358;2024-03-25T21:13:22;4.78;;;2.00;;
54157;SDS011;40065;49.894;10.358;2024-03-25T21:18:23;5.20;;;2.22;;
54157;SDS011;40065;49.894;10.358;2024-03-25T21:23:24;3.72;;;1.85;;
54157;SDS011;40065;49.894;10.358;2024-03-25T21:28:25;3.22;;;1.92;;
54157;SDS011;40065;49.894;10.358;2024-03-25T21:33:26;5.25;;;2.30;;
54157;SDS011;40065;49.894;10.358;2024-03-25T21:38:27;4.95;;;2.00;;
54157;SDS011;40065;49.894;10.358;2024-03-25T21:43:28;3.63;;;1.80;;
54157;SDS011;40065;49.894;10.358;2024-03-25T21:48:28;3.17;;;2.00;;
54157;SDS011;40065;49.894;10.358;2024-03-25T21:53:29;5.13;;;1.80;;
54157;SDS011;40065;49.894;10.358;2024-03-25T21:58:30;4.55;;;1.77;;
54157;SDS011;40065;49.894;10.358;2024-03-25T22:03:31;6.32;;;1.92;;
54157;SDS011;40065;49.894;10.358;2024-03-25T22:08:32;3.35;;;1.42;;
54157;SDS011;40065;49.894;10.358;2024-03-25T22:13:32;3.80;;;1.73;;
54157;SDS011;40065;49.894;10.358;2024-03-25T22:18:33;5.07;;;2.20;;
54157;SDS011;40065;49.894;10.358;2024-03-25T22:23:34;4.97;;;2.08;;
54157;SDS011;40065;49.894;10.358;2024-03-25T22:28:35;3.25;;;1.50;;
54157;SDS011;40065;49.894;10.358;2024-03-25T22:33:36;3.75;;;1.70;;
54157;SDS011;40065;49.894;10.358;2024-03-25T22:38:37;4.45;;;1.70;;
54157;SDS011;40065;49.894;10.358;2024-03-25T22:43:37;4.45;;;1.63;;
54157;SDS011;40065;49.894;10.358;2024-03-25T22:48:38;3.85;;;1.60;;
54157;SDS011;40065;49.894;10.358;2024-03-25T22:53:39;5.85;;;1.70;;
54157;SDS011;40065;49.894;10.358;2024-03-25T22:58:40;3.35;;;1.70;;
54157;SDS011;40065;49.894;10.358;2024-03-25T23:03:41;3.60;;;1.83;;
54157;SDS011;40065;49.894;10.358;2024-03-25T23:08:42;3.00;;;1.70;;
54157;SDS011;40065;49.894;10.358;2024-03-25T23:13:43;4.35;;;1.70;;
54157;SDS011;40065;49.894;10.358;2024-03-25T23:18:44;3.90;;;1.70;;
54157;SDS011;40065;49.894;10.358;2024-03-25T23:23:45;4.25;;;2.00;;
54157;SDS011;40065;49.894;10.358;2024-03-25T23:28:45;5.13;;;1.92;;
54157;SDS011;40065;49.894;10.358;2024-03-25T23:33:46;4.10;;;1.90;;
54157;SDS011;40065;49.894;10.358;2024-03-25T23:38:47;3.80;;;1.70;;
54157;SDS011;40065;49.894;10.358;2024-03-25T23:43:48;3.30;;;1.80;;
54157;SDS011;40065;49.894;10.358;2024-03-25T23:48:49;4.85;;;2.00;;
54157;SDS011;40065;49.894;10.358;2024-03-25T23:53:50;3.10;;;1.90;;
54157;SDS011;40065;49.894;10.358;2024-03-25T23:58:51;3.35;;;1.80;;
